Time;durP1;ratioP1;P1;durP2;ratioP2;P2;SDS_P1;SDS_P2;PMS_P1;PMS_P2;Temp;Humidity;BMP_temperature;BMP_pressure;BME280_temperature;BME280_humidity;BME280_pressure;Samples;Min_cycle;Max_cycle;Signal;HPM_P1;HPM_P2
2023/10/21 00:02:04;;;;;;;6.18;2.95;;;12.60;99.90;;;;;;5074019;28;20387;-74
2023/10/21 00:04:30;;;;;;;5.37;3.10;;;12.60;99.90;;;;;;5071829;28;20392;-74
2023/10/21 00:06:56;;;;;;;5.40;2.85;;;12.70;99.90;;;;;;5072255;28;20798;-74
2023/10/21 00:09:21;;;;;;;4.97;2.85;;;12.70;99.90;;;;;;5071818;28;20449;-75
2023/10/21 00:11:47;;;;;;;5.53;3.30;;;12.80;99.90;;;;;;5087332;28;20388;-75
2023/10/21 00:14:13;;;;;;;3.20;2.90;;;12.90;99.90;;;;;;5071899;28;20513;-75
2023/10/21 00:16:38;;;;;;;5.47;3.03;;;12.90;99.90;;;;;;5071804;28;20481;-75
2023/10/21 00:19:04;;;;;;;3.50;2.70;;;13.00;99.90;;;;;;5081724;28;20504;-75
2023/10/21 00:21:30;;;;;;;5.28;2.40;;;13.00;99.90;;;;;;5073894;28;20469;-74
2023/10/21 00:23:56;;;;;;;4.32;3.00;;;13.10;99.90;;;;;;5071029;28;20456;-75
2023/10/21 00:26:22;;;;;;;3.63;2.40;;;13.10;99.90;;;;;;5071544;28;20467;-74
2023/10/21 00:28:48;;;;;;;2.72;2.47;;;13.10;99.90;;;;;;5071479;28;20466;-75
2023/10/21 00:31:13;;;;;;;5.10;2.50;;;13.10;99.90;;;;;;5071173;28;20390;-75
2023/10/21 00:33:39;;;;;;;4.97;2.50;;;13.20;99.90;;;;;;5070887;28;20448;-75
2023/10/21 00:36:04;;;;;;;4.73;2.67;;;13.20;99.90;;;;;;5070921;28;20400;-75
2023/10/21 00:38:30;;;;;;;7.03;4.10;;;13.30;99.90;;;;;;5077978;28;20441;-74
2023/10/21 00:40:56;;;;;;;6.40;2.10;;;13.20;99.90;;;;;;5085157;28;20487;-73
2023/10/21 00:43:33;;;;;;;6.17;2.63;;;13.30;99.90;;;;;;5089209;28;20383;-73
2023/10/21 00:46:02;;;;;;;4.55;2.63;;;13.20;99.90;;;;;;5087969;28;20383;-73
2023/10/21 00:48:28;;;;;;;4.18;2.38;;;13.20;99.90;;;;;;5103415;28;20543;-72
2023/10/21 00:50:54;;;;;;;6.85;4.10;;;13.10;99.90;;;;;;5085237;28;20380;-74
2023/10/21 00:53:20;;;;;;;5.22;2.00;;;13.10;99.90;;;;;;5088345;28;20400;-75
2023/10/21 00:55:46;;;;;;;7.72;2.92;;;13.10;99.90;;;;;;5075604;28;20497;-74
2023/10/21 00:58:12;;;;;;;5.17;2.57;;;13.10;99.90;;;;;;5073195;28;20731;-74
2023/10/21 01:00:38;;;;;;;4.85;2.25;;;13.10;99.90;;;;;;5071269;28;20403;-74
2023/10/21 01:03:04;;;;;;;7.80;2.40;;;13.10;99.90;;;;;;5070836;28;20379;-74
2023/10/21 01:05:30;;;;;;;4.30;2.40;;;13.10;99.90;;;;;;5070734;28;20466;-74
2023/10/21 01:07:59;;;;;;;4.50;2.30;;;13.00;99.90;;;;;;5070819;28;20467;-74
2023/10/21 01:10:28;;;;;;;10.02;5.22;;;13.00;99.90;;;;;;5071011;28;20384;-74
2023/10/21 01:12:54;;;;;;;2.80;2.30;;;12.90;99.90;;;;;;5070913;28;20441;-73
2023/10/21 01:15:19;;;;;;;6.28;3.50;;;12.90;99.90;;;;;;5078213;28;20404;-74
2023/10/21 01:17:50;;;;;;;3.58;2.85;;;13.00;99.90;;;;;;5074993;28;20400;-73
2023/10/21 01:20:17;;;;;;;5.15;2.30;;;13.00;99.90;;;;;;5071011;28;20474;-74
2023/10/21 01:22:43;;;;;;;6.60;2.50;;;13.10;99.90;;;;;;5052775;28;20391;-74
2023/10/21 01:25:09;;;;;;;3.85;2.60;;;13.10;99.90;;;;;;5070684;28;20902;-74
2023/10/21 01:27:34;;;;;;;4.03;2.70;;;13.10;99.90;;;;;;5070644;28;20468;-74
2023/10/21 01:30:00;;;;;;;2.90;2.60;;;13.10;99.90;;;;;;5069515;28;20436;-74
2023/10/21 01:32:29;;;;;;;3.17;2.10;;;13.10;99.90;;;;;;5070892;28;20402;-74
2023/10/21 01:34:55;;;;;;;3.70;2.40;;;13.20;99.90;;;;;;5070253;28;20399;-74
2023/10/21 01:37:20;;;;;;;5.38;2.72;;;13.20;99.90;;;;;;5070294;28;20391;-74
2023/10/21 01:39:46;;;;;;;5.67;2.40;;;13.20;99.90;;;;;;5086011;28;20378;-74
2023/10/21 01:42:11;;;;;;;3.20;2.00;;;13.30;99.90;;;;;;5069309;28;20422;-75
2023/10/21 01:44:37;;;;;;;4.10;2.30;;;13.30;99.90;;;;;;5070493;28;20898;-75
2023/10/21 01:47:02;;;;;;;5.22;2.45;;;13.30;99.90;;;;;;5070623;28;20394;-75
2023/10/21 01:49:28;;;;;;;4.57;2.65;;;13.40;99.90;;;;;;5068978;28;20809;-74
2023/10/21 01:51:54;;;;;;;4.77;2.70;;;13.40;99.90;;;;;;5070278;28;20749;-74
2023/10/21 01:54:19;;;;;;;7.90;2.70;;;13.40;99.90;;;;;;5069839;28;20384;-73
2023/10/21 01:56:45;;;;;;;8.77;2.67;;;13.40;99.90;;;;;;5067850;28;20898;-72
2023/10/21 01:59:12;;;;;;;4.93;2.40;;;13.40;99.90;;;;;;5069616;28;20469;-72
2023/10/21 02:01:37;;;;;;;5.82;2.97;;;13.40;99.90;;;;;;5071294;28;20386;-73
2023/10/21 02:04:05;;;;;;;3.87;2.20;;;13.40;99.90;;;;;;5073688;28;20376;-73
2023/10/21 02:06:30;;;;;;;5.20;2.97;;;13.40;99.90;;;;;;5073976;28;20415;-74
2023/10/21 02:08:56;;;;;;;8.80;3.10;;;13.40;99.90;;;;;;5072493;28;20403;-73
2023/10/21 02:11:22;;;;;;;4.75;2.67;;;13.40;99.90;;;;;;5073799;28;20750;-74
2023/10/21 02:13:48;;;;;;;4.13;2.90;;;13.40;99.90;;;;;;5072492;28;20396;-73
2023/10/21 02:16:14;;;;;;;4.63;3.10;;;13.50;99.90;;;;;;5072328;28;20490;-73
2023/10/21 02:18:39;;;;;;;3.80;2.33;;;13.60;99.90;;;;;;5073360;28;20859;-74
2023/10/21 02:21:08;;;;;;;6.37;2.90;;;13.60;99.90;;;;;;5073977;28;20838;-74
2023/10/21 02:23:34;;;;;;;9.05;3.08;;;13.70;99.90;;;;;;5072957;28;20750;-74
2023/10/21 02:26:02;;;;;;;3.63;3.03;;;13.60;99.90;;;;;;5073078;28;20441;-74
2023/10/21 02:28:27;;;;;;;6.57;3.08;;;13.60;99.90;;;;;;5072702;28;20468;-74
2023/10/21 02:30:53;;;;;;;4.10;3.00;;;13.60;99.90;;;;;;5073283;28;20392;-72
2023/10/21 02:33:18;;;;;;;4.45;3.15;;;13.50;99.90;;;;;;5072883;28;20388;-74
2023/10/21 02:35:45;;;;;;;4.75;3.15;;;13.60;99.90;;;;;;5073045;28;20430;-74
2023/10/21 02:38:10;;;;;;;3.65;3.35;;;13.60;99.90;;;;;;5073953;28;20433;-76
2023/10/21 02:40:41;;;;;;;6.13;3.70;;;13.60;99.90;;;;;;5072430;28;20406;-75
2023/10/21 02:43:07;;;;;;;4.80;4.30;;;13.50;99.90;;;;;;5074356;28;20459;-75
2023/10/21 02:45:33;;;;;;;6.10;4.00;;;13.60;99.90;;;;;;5073716;28;20422;-75
2023/10/21 02:47:58;;;;;;;7.20;4.10;;;13.60;99.90;;;;;;5073645;28;20383;-75
2023/10/21 02:50:24;;;;;;;6.75;4.70;;;13.60;99.90;;;;;;5073654;28;20398;-74
2023/10/21 02:52:51;;;;;;;8.03;4.40;;;13.50;99.90;;;;;;5073015;28;20866;-73
2023/10/21 02:55:16;;;;;;;4.95;4.45;;;13.50;99.90;;;;;;5072746;28;20404;-74
2023/10/21 02:57:42;;;;;;;9.53;4.77;;;13.60;99.90;;;;;;5071743;28;20380;-73
2023/10/21 03:00:10;;;;;;;8.33;5.27;;;13.60;99.90;;;;;;5073034;28;20392;-74
2023/10/21 03:02:37;;;;;;;6.45;4.82;;;13.50;99.90;;;;;;5072622;28;20372;-74
2023/10/21 03:05:05;;;;;;;8.82;5.35;;;13.50;99.90;;;;;;5072585;28;20434;-74
2023/10/21 03:07:30;;;;;;;8.27;5.32;;;13.50;99.90;;;;;;5072986;28;20376;-74
2023/10/21 03:09:56;;;;;;;7.50;5.00;;;13.50;99.90;;;;;;5074476;28;20384;-74
2023/10/21 03:12:22;;;;;;;12.17;5.90;;;13.50;99.90;;;;;;5081674;28;20383;-75
2023/10/21 03:14:47;;;;;;;7.83;5.87;;;13.50;99.90;;;;;;5090617;28;20399;-74
2023/10/21 03:17:14;;;;;;;12.40;6.63;;;13.50;99.90;;;;;;5086185;28;20376;-74
2023/10/21 03:19:39;;;;;;;8.48;5.30;;;13.50;99.90;;;;;;5090106;28;20402;-74
2023/10/21 03:22:05;;;;;;;7.68;5.93;;;13.50;99.90;;;;;;5079454;28;20392;-74
2023/10/21 03:24:30;;;;;;;9.87;5.60;;;13.50;99.90;;;;;;5075379;28;20436;-74
2023/10/21 03:26:56;;;;;;;11.27;6.27;;;13.50;99.90;;;;;;5080595;28;20911;-74
2023/10/21 03:29:21;;;;;;;9.95;5.93;;;13.50;99.90;;;;;;5082797;22;20425;-71
2023/10/21 03:31:47;;;;;;;9.75;6.20;;;13.50;99.90;;;;;;5052413;28;20373;-71
2023/10/21 03:34:13;;;;;;;9.40;5.80;;;13.60;99.90;;;;;;5052296;28;20374;-72
2023/10/21 03:36:38;;;;;;;11.30;6.60;;;13.50;99.90;;;;;;5052304;28;20389;-70
2023/10/21 03:39:05;;;;;;;11.00;7.03;;;13.50;99.90;;;;;;5052328;28;20389;-72
2023/10/21 03:41:31;;;;;;;10.82;5.95;;;13.50;99.90;;;;;;5052116;28;20713;-71
2023/10/21 03:43:57;;;;;;;8.80;6.43;;;13.50;99.90;;;;;;5052196;28;20464;-71
2023/10/21 03:46:24;;;;;;;10.23;5.85;;;13.60;99.90;;;;;;5051017;28;20398;-71
2023/10/21 03:48:50;;;;;;;8.23;6.28;;;13.60;99.90;;;;;;5052020;28;20472;-71
2023/10/21 03:51:16;;;;;;;8.90;6.50;;;13.50;99.90;;;;;;5052640;28;20389;-70
2023/10/21 03:53:43;;;;;;;11.05;6.85;;;13.60;99.90;;;;;;5052240;28;20439;-71
2023/10/21 03:56:09;;;;;;;11.25;6.82;;;13.60;99.90;;;;;;5052609;28;20881;-70
2023/10/21 03:58:35;;;;;;;10.60;6.43;;;13.60;99.90;;;;;;5053322;28;20385;-73
2023/10/21 04:01:01;;;;;;;11.02;7.05;;;13.60;99.90;;;;;;5052900;28;20388;-71
2023/10/21 04:03:27;;;;;;;8.93;5.63;;;13.60;99.90;;;;;;5053100;28;20386;-72
2023/10/21 04:05:57;;;;;;;9.85;6.47;;;13.70;99.90;;;;;;5051596;28;20389;-71
2023/10/21 04:08:24;;;;;;;9.77;5.80;;;13.70;99.90;;;;;;5051917;28;20476;-73
2023/10/21 04:10:50;;;;;;;9.97;6.50;;;13.70;99.90;;;;;;5050621;28;20872;-71
2023/10/21 04:13:16;;;;;;;11.85;6.68;;;13.60;99.90;;;;;;5051556;28;20917;-69
2023/10/21 04:15:41;;;;;;;12.88;8.27;;;13.60;99.90;;;;;;5051631;28;20406;-71
2023/10/21 04:18:07;;;;;;;8.63;6.40;;;13.60;99.90;;;;;;5051611;28;20385;-71
2023/10/21 04:20:33;;;;;;;10.05;6.50;;;13.60;99.90;;;;;;5051532;28;20397;-72
2023/10/21 04:23:00;;;;;;;9.95;6.53;;;13.60;99.90;;;;;;5051508;28;20378;-72
2023/10/21 04:25:26;;;;;;;9.60;6.55;;;13.60;99.90;;;;;;5051256;28;20953;-71
2023/10/21 04:27:52;;;;;;;11.32;7.00;;;13.60;99.90;;;;;;5051435;28;20389;-70
2023/10/21 04:30:18;;;;;;;11.63;6.78;;;13.60;99.90;;;;;;5051113;28;20769;-70
2023/10/21 04:32:44;;;;;;;11.10;6.35;;;13.60;99.90;;;;;;5051178;28;20473;-70
2023/10/21 04:35:09;;;;;;;8.55;6.25;;;13.60;99.90;;;;;;5051062;28;20448;-71
2023/10/21 04:37:35;;;;;;;12.10;6.70;;;13.60;99.90;;;;;;5051727;28;20404;-72
2023/10/21 04:40:02;;;;;;;11.35;6.90;;;13.60;99.90;;;;;;5051550;28;20393;-70
2023/10/21 04:42:28;;;;;;;9.85;6.80;;;13.60;99.90;;;;;;5051404;28;20390;-72
2023/10/21 04:44:54;;;;;;;8.73;6.70;;;13.60;99.90;;;;;;5051479;28;20397;-70
2023/10/21 04:47:19;;;;;;;9.43;6.00;;;13.60;99.90;;;;;;5051034;28;20378;-71
2023/10/21 04:49:45;;;;;;;11.00;6.18;;;13.60;99.90;;;;;;5050980;28;20443;-72
2023/10/21 04:52:11;;;;;;;9.90;6.25;;;13.60;99.90;;;;;;5052142;28;20381;-71
2023/10/21 04:54:37;;;;;;;10.88;6.38;;;13.60;99.90;;;;;;5050672;28;20545;-71
2023/10/21 04:57:03;;;;;;;8.53;6.33;;;13.60;99.90;;;;;;5051100;28;20381;-71
2023/10/21 04:59:28;;;;;;;10.70;6.30;;;13.60;99.90;;;;;;5050840;28;20465;-71
2023/10/21 05:01:54;;;;;;;9.77;6.45;;;13.60;99.90;;;;;;5051171;28;20627;-69
2023/10/21 05:04:19;;;;;;;9.07;6.05;;;13.60;99.90;;;;;;5050862;28;20721;-71
2023/10/21 05:06:45;;;;;;;9.80;6.10;;;13.60;99.90;;;;;;5050931;28;20883;-71
2023/10/21 05:09:10;;;;;;;12.83;6.13;;;13.50;99.90;;;;;;5050683;28;20848;-70
2023/10/21 05:11:36;;;;;;;9.98;6.10;;;13.40;99.90;;;;;;5050963;28;20841;-71
2023/10/21 05:14:02;;;;;;;10.80;6.07;;;13.20;99.90;;;;;;5051091;28;20382;-72
2023/10/21 05:16:27;;;;;;;12.57;7.10;;;13.20;99.90;;;;;;5051174;28;20906;-71
2023/10/21 05:18:53;;;;;;;10.17;6.87;;;13.00;99.90;;;;;;5051411;28;20888;-70
2023/10/21 05:21:18;;;;;;;11.73;7.00;;;12.90;99.90;;;;;;5050965;28;20422;-72
2023/10/21 05:23:44;;;;;;;9.47;6.00;;;12.90;99.90;;;;;;5050605;28;20906;-71
2023/10/21 05:26:09;;;;;;;9.73;6.30;;;12.80;99.90;;;;;;5050838;28;20495;-72
2023/10/21 05:28:35;;;;;;;11.98;7.13;;;12.80;99.90;;;;;;5050488;28;20782;-69
2023/10/21 05:31:01;;;;;;;9.00;6.30;;;12.80;99.90;;;;;;5050599;28;20404;-72
2023/10/21 05:33:27;;;;;;;9.43;5.80;;;12.90;99.90;;;;;;5050430;28;20416;-72
2023/10/21 05:35:57;;;;;;;14.05;6.47;;;12.80;99.90;;;;;;5050503;28;20911;-70
2023/10/21 05:38:24;;;;;;;11.50;5.80;;;12.80;99.90;;;;;;5054687;28;20804;-71
2023/10/21 05:40:50;;;;;;;12.13;6.20;;;12.70;99.90;;;;;;5054834;28;20381;-71
2023/10/21 05:43:15;;;;;;;10.50;6.60;;;12.70;99.90;;;;;;5054664;28;20380;-71
2023/10/21 05:45:41;;;;;;;10.73;5.60;;;12.80;99.90;;;;;;5054390;28;20882;-70
2023/10/21 05:48:06;;;;;;;9.98;6.00;;;12.80;99.90;;;;;;5054488;28;20394;-72
2023/10/21 05:50:32;;;;;;;9.60;6.00;;;12.80;99.90;;;;;;5054354;28;20396;-72
2023/10/21 05:52:58;;;;;;;9.27;5.80;;;12.90;99.90;;;;;;5054164;28;20385;-71
2023/10/21 05:55:23;;;;;;;12.23;6.10;;;13.00;99.90;;;;;;5053991;28;20401;-72
2023/10/21 05:57:49;;;;;;;8.80;5.90;;;13.00;99.90;;;;;;5054111;28;20757;-71
2023/10/21 06:00:15;;;;;;;9.00;5.35;;;13.00;99.90;;;;;;5052681;28;20390;-71
2023/10/21 06:02:41;;;;;;;10.35;5.80;;;12.90;99.90;;;;;;5053795;28;20393;-71
2023/10/21 06:05:07;;;;;;;8.45;5.85;;;13.00;99.90;;;;;;5053891;28;20388;-71
2023/10/21 06:07:33;;;;;;;9.80;5.57;;;13.00;99.90;;;;;;5053838;28;20898;-70
2023/10/21 06:09:58;;;;;;;14.65;5.80;;;13.10;99.90;;;;;;5053966;28;20386;-69
2023/10/21 06:12:24;;;;;;;9.50;6.00;;;13.20;99.90;;;;;;5053972;28;20404;-71
2023/10/21 06:14:51;;;;;;;9.20;6.35;;;13.20;99.90;;;;;;5053639;28;20487;-71
2023/10/21 06:17:16;;;;;;;10.90;6.65;;;13.10;99.90;;;;;;5052481;28;20389;-70
2023/10/21 06:19:46;;;;;;;9.20;6.28;;;13.20;99.90;;;;;;5053604;28;20458;-70
2023/10/21 06:22:14;;;;;;;9.75;6.10;;;13.20;99.90;;;;;;5053530;28;20377;-70
2023/10/21 06:24:40;;;;;;;8.80;5.90;;;13.30;99.90;;;;;;5053207;28;20399;-71
2023/10/21 06:27:07;;;;;;;10.77;6.50;;;13.40;99.90;;;;;;5053711;28;20465;-71
2023/10/21 06:29:35;;;;;;;7.40;6.13;;;13.50;99.90;;;;;;5053462;28;20488;-71
2023/10/21 06:32:04;;;;;;;10.10;6.20;;;13.50;99.90;;;;;;5053494;28;20389;-71
2023/10/21 06:34:29;;;;;;;11.68;6.60;;;13.50;99.90;;;;;;5053007;28;20396;-72
2023/10/21 06:36:55;;;;;;;10.97;8.20;;;13.60;99.90;;;;;;5052044;28;20868;-70
2023/10/21 06:39:21;;;;;;;11.20;8.38;;;13.70;99.90;;;;;;5053352;28;20422;-71
2023/10/21 06:41:46;;;;;;;13.65;8.15;;;13.70;99.90;;;;;;5053504;28;20863;-70
2023/10/21 06:44:12;;;;;;;10.88;7.45;;;13.70;99.90;;;;;;5052631;28;20389;-71
2023/10/21 06:46:38;;;;;;;9.52;6.90;;;13.80;99.90;;;;;;5052967;28;20380;-70
2023/10/21 06:49:04;;;;;;;10.50;6.72;;;13.80;99.90;;;;;;5052662;28;20382;-70
2023/10/21 06:51:30;;;;;;;33.63;23.80;;;13.80;99.90;;;;;;5052925;28;20392;-70
2023/10/21 06:53:55;;;;;;;7.00;5.97;;;13.90;99.90;;;;;;5053001;28;20380;-70
2023/10/21 06:56:21;;;;;;;12.20;6.30;;;13.90;99.90;;;;;;5053031;28;20883;-71
2023/10/21 06:58:52;;;;;;;9.52;6.40;;;13.90;99.90;;;;;;5052770;28;20476;-70
2023/10/21 07:01:17;;;;;;;8.63;6.18;;;14.00;99.90;;;;;;5052636;28;20373;-70
2023/10/21 07:03:43;;;;;;;8.53;6.03;;;14.00;99.90;;;;;;5052534;28;20744;-72
2023/10/21 07:06:08;;;;;;;6.93;5.60;;;14.00;99.90;;;;;;5052417;28;20732;-71
2023/10/21 07:08:34;;;;;;;6.88;5.57;;;14.00;99.90;;;;;;5052671;28;20385;-71
2023/10/21 07:11:00;;;;;;;11.30;6.00;;;14.10;99.90;;;;;;5052536;28;20401;-72
2023/10/21 07:13:25;;;;;;;8.65;6.00;;;14.00;99.90;;;;;;5052419;28;20755;-71
2023/10/21 07:15:51;;;;;;;10.95;6.55;;;14.10;99.90;;;;;;5052317;28;20398;-71
2023/10/21 07:18:17;;;;;;;10.65;7.47;;;14.10;99.90;;;;;;5052607;28;20389;-69
2023/10/21 07:20:43;;;;;;;11.05;6.95;;;14.10;99.90;;;;;;5051750;28;20400;-71
2023/10/21 07:23:12;;;;;;;8.00;6.30;;;14.10;99.90;;;;;;5051745;28;20906;-71
2023/10/21 07:25:39;;;;;;;7.60;4.90;;;14.10;99.90;;;;;;5048963;28;20401;-71
2023/10/21 07:28:05;;;;;;;4.85;3.70;;;14.20;99.90;;;;;;5051414;28;20405;-70
2023/10/21 07:30:30;;;;;;;7.55;4.40;;;14.20;99.90;;;;;;5052265;28;20899;-70
2023/10/21 07:32:56;;;;;;;6.55;3.10;;;14.40;99.90;;;;;;5050950;28;20402;-71
2023/10/21 07:35:21;;;;;;;3.50;1.90;;;14.50;99.90;;;;;;5037181;28;21020;-71
2023/10/21 07:37:47;;;;;;;2.20;2.00;;;14.50;99.90;;;;;;5050235;28;20760;-72
2023/10/21 07:40:13;;;;;;;3.23;1.70;;;14.50;99.90;;;;;;5051746;28;20400;-71
2023/10/21 07:42:40;;;;;;;4.32;1.50;;;14.70;96.10;;;;;;5051923;28;20377;-71
2023/10/21 07:45:06;;;;;;;1.50;1.30;;;14.80;92.40;;;;;;5051928;28;20448;-70
2023/10/21 07:47:33;;;;;;;3.20;1.20;;;14.80;88.70;;;;;;5049095;28;20429;-71
2023/10/21 07:50:00;;;;;;;3.15;1.00;;;14.90;81.90;;;;;;5051933;28;20398;-71
2023/10/21 07:52:26;;;;;;;2.58;0.95;;;15.00;80.20;;;;;;5051450;28;20892;-70
2023/10/21 07:54:53;;;;;;;1.83;1.13;;;15.10;75.00;;;;;;5051612;28;20478;-71
2023/10/21 07:57:19;;;;;;;2.75;0.80;;;15.30;71.00;;;;;;5050704;28;20397;-70
2023/10/21 07:59:45;;;;;;;2.20;1.10;;;15.40;68.00;;;;;;5050763;28;20393;-71
2023/10/21 08:02:10;;;;;;;3.60;1.20;;;15.50;66.20;;;;;;5051821;28;20413;-72
2023/10/21 08:04:36;;;;;;;1.27;1.10;;;15.50;66.00;;;;;;5037417;28;20486;-72
2023/10/21 08:07:02;;;;;;;2.07;0.90;;;15.40;63.00;;;;;;5030550;28;20394;-72
2023/10/21 08:09:27;;;;;;;1.70;0.90;;;15.20;63.60;;;;;;5030265;28;20745;-71
2023/10/21 08:11:53;;;;;;;3.92;1.15;;;15.00;65.00;;;;;;5046096;28;20413;-70
2023/10/21 08:14:19;;;;;;;2.80;1.40;;;14.90;66.50;;;;;;5050652;28;20389;-70
2023/10/21 08:16:44;;;;;;;2.90;1.02;;;15.00;67.60;;;;;;5050470;28;20840;-70
2023/10/21 08:19:10;;;;;;;3.40;1.00;;;15.00;70.40;;;;;;5051425;28;20422;-71
2023/10/21 08:21:36;;;;;;;1.80;1.20;;;15.10;70.00;;;;;;5050886;28;20420;-71
2023/10/21 08:24:07;;;;;;;2.53;1.00;;;15.30;69.90;;;;;;5050837;28;20447;-71
2023/10/21 08:26:33;;;;;;;1.77;1.00;;;15.40;65.40;;;;;;5045993;28;20410;-72
2023/10/21 08:28:59;;;;;;;2.30;1.20;;;15.30;63.10;;;;;;5030437;28;20901;-71
2023/10/21 08:31:25;;;;;;;3.90;1.20;;;15.30;66.20;;;;;;5031107;28;20383;-71
2023/10/21 08:33:54;;;;;;;3.17;1.80;;;15.20;65.60;;;;;;5031618;28;20410;-70
2023/10/21 08:36:20;;;;;;;5.28;2.65;;;15.10;65.10;;;;;;5031634;28;20438;-71
2023/10/21 08:38:47;;;;;;;4.00;1.98;;;15.00;66.80;;;;;;5031407;28;20413;-71
2023/10/21 08:41:13;;;;;;;2.70;1.80;;;14.90;65.20;;;;;;5031561;28;20387;-73
2023/10/21 08:43:45;;;;;;;2.70;2.00;;;14.90;65.90;;;;;;5031447;28;20402;-72
2023/10/21 08:46:13;;;;;;;3.13;1.25;;;15.00;62.90;;;;;;5031166;28;20454;-72
2023/10/21 08:48:39;;;;;;;4.55;1.48;;;15.00;61.70;;;;;;5031039;28;20566;-71
2023/10/21 08:51:09;;;;;;;3.38;1.30;;;15.00;60.40;;;;;;5031094;28;20406;-74
2023/10/21 08:53:38;;;;;;;9.85;4.18;;;15.20;58.00;;;;;;5035099;28;20428;-70
2023/10/21 08:56:03;;;;;;;3.53;2.23;;;15.30;54.70;;;;;;5042840;28;20414;-70
2023/10/21 08:58:29;;;;;;;2.50;1.10;;;15.60;51.20;;;;;;5038821;28;20480;-71
2023/10/21 09:00:55;;;;;;;1.83;1.10;;;15.70;50.90;;;;;;5050564;28;20689;-71
2023/10/21 09:03:20;;;;;;;2.47;1.60;;;15.60;50.20;;;;;;5050590;28;20472;-72
2023/10/21 09:06:10;;;;;;;2.63;1.33;;;15.50;47.60;;;;;;5050375;28;20474;-72
2023/10/21 09:08:36;;;;;;;4.03;1.63;;;15.50;48.70;;;;;;5050575;28;20431;-69
2023/10/21 09:11:07;;;;;;;3.20;1.90;;;15.40;49.80;;;;;;5050174;28;20769;-69
2023/10/21 09:13:37;;;;;;;4.30;1.30;;;15.60;50.70;;;;;;5039499;28;20483;-71
2023/10/21 09:16:04;;;;;;;11.30;6.15;;;15.80;51.00;;;;;;5040101;28;20405;-70
2023/10/21 09:18:34;;;;;;;4.75;2.15;;;15.90;50.20;;;;;;5050060;28;20386;-71
2023/10/21 09:21:00;;;;;;;2.78;1.55;;;16.00;48.60;;;;;;5050101;28;20756;-71
2023/10/21 09:23:26;;;;;;;1.67;1.10;;;16.00;48.80;;;;;;5050685;28;20390;-70
2023/10/21 09:25:53;;;;;;;5.22;1.52;;;16.10;45.90;;;;;;5050371;28;20389;-71
2023/10/21 09:28:24;;;;;;;3.33;1.10;;;16.20;44.30;;;;;;5050258;28;20381;-71
2023/10/21 09:31:01;;;;;;;2.50;1.20;;;16.20;42.30;;;;;;5068481;22;20489;-73
2023/10/21 09:33:27;;;;;;;2.65;1.10;;;16.20;42.40;;;;;;5050010;28;20385;-75
2023/10/21 09:36:01;;;;;;;2.33;1.45;;;16.40;40.40;;;;;;5049684;28;20401;-75
2023/10/21 09:38:27;;;;;;;3.00;1.30;;;16.70;39.00;;;;;;5050077;28;20386;-75
2023/10/21 09:40:53;;;;;;;1.45;1.00;;;16.90;37.60;;;;;;5049747;28;20473;-74
2023/10/21 09:43:21;;;;;;;2.25;1.08;;;16.90;37.30;;;;;;5049885;28;20407;-75
2023/10/21 09:45:49;;;;;;;1.70;1.02;;;16.90;37.70;;;;;;5049913;28;20400;-74
2023/10/21 09:48:15;;;;;;;2.00;1.10;;;16.90;36.90;;;;;;5049634;28;20428;-76
2023/10/21 09:51:06;;;;;;;3.63;1.10;;;16.90;36.00;;;;;;5050278;28;20428;-75
2023/10/21 09:53:43;;;;;;;4.10;1.30;;;16.70;37.00;;;;;;5049930;28;20386;-74
2023/10/21 09:56:11;;;;;;;4.00;1.02;;;16.50;38.50;;;;;;5049700;28;20977;-74
2023/10/21 09:58:40;;;;;;;3.72;1.60;;;16.20;38.00;;;;;;5050045;28;20389;-74
2023/10/21 10:01:07;;;;;;;1.35;0.90;;;16.20;39.50;;;;;;5050482;28;20377;-74
2023/10/21 10:03:35;;;;;;;2.90;1.00;;;16.20;38.90;;;;;;5050110;28;20385;-74
2023/10/21 10:06:04;;;;;;;4.50;1.00;;;16.20;39.70;;;;;;5050409;28;20381;-75
2023/10/21 10:08:34;;;;;;;3.70;1.60;;;16.10;40.00;;;;;;5050783;28;20385;-75
2023/10/21 10:11:10;;;;;;;4.18;1.25;;;16.10;40.70;;;;;;5050305;28;20468;-75
2023/10/21 10:13:42;;;;;;;4.70;1.25;;;16.30;40.60;;;;;;5050691;28;20864;-76
2023/10/21 10:16:24;;;;;;;3.88;1.20;;;16.40;36.90;;;;;;5051618;28;20448;-76
2023/10/21 10:18:56;;;;;;;4.55;1.40;;;16.40;35.60;;;;;;5048955;28;20901;-76
2023/10/21 10:21:21;;;;;;;2.95;1.48;;;16.50;35.80;;;;;;5049611;28;20507;-75
2023/10/21 10:24:00;;;;;;;3.73;1.40;;;16.50;34.80;;;;;;5053099;28;20468;-75
2023/10/21 10:26:38;;;;;;;6.07;1.30;;;16.60;36.00;;;;;;5053403;28;20728;-76
2023/10/21 10:29:25;;;;;;;2.25;1.00;;;16.70;35.10;;;;;;5053951;28;20393;-76
2023/10/21 10:32:10;;;;;;;5.63;1.50;;;16.80;35.40;;;;;;5052806;28;20394;-75
2023/10/21 10:34:48;;;;;;;2.30;1.00;;;16.90;34.60;;;;;;5052802;28;20386;-75
2023/10/21 10:37:34;;;;;;;2.47;1.35;;;17.00;33.90;;;;;;5053084;28;20393;-75
2023/10/21 10:39:59;;;;;;;3.90;1.33;;;17.00;33.20;;;;;;5052917;28;20369;-76
2023/10/21 10:42:29;;;;;;;3.03;1.50;;;17.10;32.90;;;;;;5052823;28;20374;-73
2023/10/21 10:44:55;;;;;;;2.60;1.10;;;17.20;33.10;;;;;;5053066;28;20378;-77
2023/10/21 10:47:22;;;;;;;3.20;1.17;;;17.30;31.90;;;;;;5052690;28;20397;-74
2023/10/21 10:49:58;;;;;;;3.23;1.10;;;17.40;31.50;;;;;;5052657;28;20393;-75
2023/10/21 10:52:35;;;;;;;5.43;1.40;;;17.60;30.10;;;;;;5052741;28;20551;-75
2023/10/21 10:55:02;;;;;;;3.03;1.20;;;18.00;29.40;;;;;;5052687;28;20474;-74
2023/10/21 10:57:29;;;;;;;8.48;1.73;;;18.40;29.30;;;;;;5052853;28;20450;-76
2023/10/21 10:59:55;;;;;;;5.05;1.60;;;18.60;28.10;;;;;;5052439;28;20389;-75
2023/10/21 11:02:20;;;;;;;5.57;1.30;;;18.90;27.90;;;;;;5052813;28;20382;-75
2023/10/21 11:04:49;;;;;;;4.27;1.00;;;19.10;26.90;;;;;;5052708;28;20378;-77
2023/10/21 11:07:21;;;;;;;7.53;1.60;;;19.20;26.20;;;;;;5051049;28;20384;-76
2023/10/21 11:09:57;;;;;;;1.50;1.10;;;19.50;27.00;;;;;;5054717;28;20377;-74
2023/10/21 11:12:24;;;;;;;5.70;1.00;;;19.30;24.40;;;;;;5052960;28;20451;-75
2023/10/21 11:14:49;;;;;;;4.53;1.33;;;19.00;23.60;;;;;;5051790;28;20492;-75
2023/10/21 11:17:17;;;;;;;8.60;1.50;;;18.80;24.20;;;;;;5050826;28;20424;-74
2023/10/21 11:19:43;;;;;;;3.85;1.45;;;18.60;24.80;;;;;;5052194;28;20733;-75
2023/10/21 11:22:25;;;;;;;9.82;1.70;;;18.40;25.90;;;;;;5052414;28;20439;-76
2023/10/21 11:24:51;;;;;;;5.15;1.27;;;18.20;25.80;;;;;;5052109;28;20417;-75
2023/10/21 11:27:17;;;;;;;3.95;1.10;;;18.10;25.70;;;;;;5052425;28;20492;-75
2023/10/21 11:29:43;;;;;;;3.88;1.60;;;18.00;26.50;;;;;;5052250;28;20475;-74
2023/10/21 11:32:13;;;;;;;4.13;1.30;;;18.10;26.30;;;;;;5052390;28;20405;-76
2023/10/21 11:34:43;;;;;;;3.28;1.50;;;18.30;25.90;;;;;;5051656;28;20382;-75
2023/10/21 11:37:10;;;;;;;9.60;1.80;;;18.40;26.40;;;;;;5051863;28;20396;-75
2023/10/21 11:39:39;;;;;;;5.50;1.50;;;18.30;26.20;;;;;;5051762;28;20400;-73
2023/10/21 11:42:16;;;;;;;5.25;1.58;;;18.20;26.60;;;;;;5052052;28;20396;-72
2023/10/21 11:44:41;;;;;;;4.32;1.50;;;18.10;26.90;;;;;;5051173;28;20428;-75
2023/10/21 11:47:07;;;;;;;6.35;1.65;;;17.90;28.10;;;;;;5052388;28;20397;-74
2023/10/21 11:49:37;;;;;;;5.07;1.35;;;17.90;28.30;;;;;;5050491;28;20401;-75
2023/10/21 11:52:03;;;;;;;7.63;2.17;;;17.90;27.10;;;;;;5053000;28;20885;-77
2023/10/21 11:54:53;;;;;;;5.97;1.63;;;18.00;27.50;;;;;;5051967;28;20390;-75
2023/10/21 12:06:15;;;;;;;4.60;1.55;;;18.20;27.60;;;;;;5050920;28;20384;-75
2023/10/21 12:14:32;;;;;;;6.05;1.70;;;19.10;22.40;;;;;;5051154;28;20390;-77
2023/10/21 12:33:19;;;;;;;6.28;2.00;;;18.60;22.00;;;;;;5054296;28;20380;-75
2023/10/21 12:35:53;;;;;;;7.45;2.00;;;18.40;22.60;;;;;;5052162;28;20482;-74
2023/10/21 12:38:38;;;;;;;7.43;2.05;;;18.30;22.70;;;;;;5050813;28;20880;-75
2023/10/21 12:41:20;;;;;;;7.88;2.00;;;18.40;20.10;;;;;;5053919;28;20421;-77
2023/10/21 12:43:48;;;;;;;8.63;2.05;;;18.40;19.70;;;;;;5050326;28;20389;-73
2023/10/21 12:46:17;;;;;;;10.88;2.10;;;18.50;19.60;;;;;;5049825;28;20875;-76
2023/10/21 12:48:44;;;;;;;8.20;2.00;;;18.50;20.00;;;;;;5050151;28;20843;-74
2023/10/21 12:51:14;;;;;;;12.27;2.83;;;18.60;20.00;;;;;;5049953;28;20459;-75
2023/10/21 12:53:39;;;;;;;10.32;1.70;;;18.60;19.30;;;;;;5049965;28;20385;-75
2023/10/21 12:56:06;;;;;;;6.20;1.93;;;18.50;18.60;;;;;;5050129;28;20409;-75
2023/10/21 12:58:33;;;;;;;7.15;1.90;;;18.30;19.50;;;;;;5050181;28;21143;-76
2023/10/21 13:00:59;;;;;;;12.67;2.10;;;18.30;19.50;;;;;;5051624;28;20504;-76
2023/10/21 13:03:24;;;;;;;8.47;1.87;;;18.10;19.80;;;;;;5050409;28;20864;-76
2023/10/21 13:05:52;;;;;;;9.17;2.10;;;18.00;19.80;;;;;;5051276;28;20393;-77
2023/10/21 13:08:18;;;;;;;8.13;2.00;;;18.00;19.60;;;;;;5051449;28;20467;-75
2023/10/21 13:10:43;;;;;;;10.15;2.40;;;17.90;19.50;;;;;;5051850;28;21015;-74
2023/10/21 13:13:11;;;;;;;8.20;2.20;;;17.80;19.90;;;;;;5051505;28;20478;-74
2023/10/21 13:15:37;;;;;;;9.80;2.40;;;17.80;19.70;;;;;;5053971;28;20401;-74
2023/10/21 13:18:03;;;;;;;10.35;2.17;;;18.10;19.70;;;;;;5053863;28;20393;-75